sensor_id;sensor_type;location;lat;lon;timestamp;P1;durP1;ratioP1;P2;durP2;ratioP2
78891;SDS011;68368;51.728;5.248;2023-06-22T00:00:27;7.40;;;6.50;;
78891;SDS011;68368;51.728;5.248;2023-06-22T00:02:31;8.80;;;6.80;;
78891;SDS011;68368;51.728;5.248;2023-06-22T00:04:34;11.40;;;8.00;;
78891;SDS011;68368;51.728;5.248;2023-06-22T00:06:37;10.40;;;7.40;;
78891;SDS011;68368;51.728;5.248;2023-06-22T00:08:41;11.20;;;8.50;;
78891;SDS011;68368;51.728;5.248;2023-06-22T00:10:44;10.20;;;7.40;;
78891;SDS011;68368;51.728;5.248;2023-06-22T00:12:48;9.90;;;7.60;;
78891;SDS011;68368;51.728;5.248;2023-06-22T00:14:51;10.90;;;7.30;;
78891;SDS011;68368;51.728;5.248;2023-06-22T00:16:57;11.90;;;8.30;;
78891;SDS011;68368;51.728;5.248;2023-06-22T00:19:00;10.80;;;8.10;;
78891;SDS011;68368;51.728;5.248;2023-06-22T00:21:03;10.00;;;8.60;;
78891;SDS011;68368;51.728;5.248;2023-06-22T00:23:06;11.30;;;8.40;;
78891;SDS011;68368;51.728;5.248;2023-06-22T00:25:10;12.30;;;8.10;;
78891;SDS011;68368;51.728;5.248;2023-06-22T00:27:13;11.80;;;8.20;;
78891;SDS011;68368;51.728;5.248;2023-06-22T00:29:16;9.60;;;7.70;;
78891;SDS011;68368;51.728;5.248;2023-06-22T00:31:20;12.20;;;8.80;;
78891;SDS011;68368;51.728;5.248;2023-06-22T00:33:23;11.40;;;9.20;;
78891;SDS011;68368;51.728;5.248;2023-06-22T00:35:27;11.00;;;8.30;;
78891;SDS011;68368;51.728;5.248;2023-06-22T00:37:31;11.60;;;8.70;;
78891;SDS011;68368;51.728;5.248;2023-06-22T00:39:34;11.90;;;7.80;;
78891;SDS011;68368;51.728;5.248;2023-06-22T00:41:40;14.40;;;8.80;;
78891;SDS011;68368;51.728;5.248;2023-06-22T00:43:43;10.20;;;8.40;;
78891;SDS011;68368;51.728;5.248;2023-06-22T00:45:46;12.50;;;8.80;;
78891;SDS011;68368;51.728;5.248;2023-06-22T00:47:50;10.70;;;7.50;;
78891;SDS011;68368;51.728;5.248;2023-06-22T00:49:54;11.10;;;7.80;;
78891;SDS011;68368;51.728;5.248;2023-06-22T00:51:57;10.20;;;7.20;;
78891;SDS011;68368;51.728;5.248;2023-06-22T00:54:00;13.30;;;8.90;;
78891;SDS011;68368;51.728;5.248;2023-06-22T00:56:05;13.60;;;9.10;;
78891;SDS011;68368;51.728;5.248;2023-06-22T00:58:08;10.30;;;8.40;;
78891;SDS011;68368;51.728;5.248;2023-06-22T01:00:13;10.00;;;8.20;;
78891;SDS011;68368;51.728;5.248;2023-06-22T01:02:17;11.10;;;8.40;;
78891;SDS011;68368;51.728;5.248;2023-06-22T01:04:21;12.30;;;9.70;;
78891;SDS011;68368;51.728;5.248;2023-06-22T01:06:35;12.80;;;9.60;;
78891;SDS011;68368;51.728;5.248;2023-06-22T01:08:48;12.70;;;9.00;;
78891;SDS011;68368;51.728;5.248;2023-06-22T01:11:00;12.10;;;8.50;;
78891;SDS011;68368;51.728;5.248;2023-06-22T01:13:12;12.30;;;8.20;;
78891;SDS011;68368;51.728;5.248;2023-06-22T01:15:25;11.00;;;7.40;;
78891;SDS011;68368;51.728;5.248;2023-06-22T01:17:34;10.30;;;8.90;;
78891;SDS011;68368;51.728;5.248;2023-06-22T01:19:43;12.70;;;9.50;;
78891;SDS011;68368;51.728;5.248;2023-06-22T01:21:49;13.00;;;9.70;;
78891;SDS011;68368;51.728;5.248;2023-06-22T01:24:01;13.60;;;9.20;;
78891;SDS011;68368;51.728;5.248;2023-06-22T01:26:15;12.50;;;9.80;;
78891;SDS011;68368;51.728;5.248;2023-06-22T01:28:31;14.70;;;10.20;;
78891;SDS011;68368;51.728;5.248;2023-06-22T01:30:44;11.70;;;8.90;;
78891;SDS011;68368;51.728;5.248;2023-06-22T01:32:50;13.40;;;9.90;;
78891;SDS011;68368;51.728;5.248;2023-06-22T01:34:55;12.90;;;9.60;;
78891;SDS011;68368;51.728;5.248;2023-06-22T01:37:00;13.40;;;10.00;;
78891;SDS011;68368;51.728;5.248;2023-06-22T01:39:06;16.30;;;11.10;;
78891;SDS011;68368;51.728;5.248;2023-06-22T01:41:11;13.90;;;9.90;;
78891;SDS011;68368;51.728;5.248;2023-06-22T01:43:14;12.80;;;9.80;;
78891;SDS011;68368;51.728;5.248;2023-06-22T01:45:18;12.40;;;10.20;;
78891;SDS011;68368;51.728;5.248;2023-06-22T01:47:22;15.40;;;10.50;;
78891;SDS011;68368;51.728;5.248;2023-06-22T01:49:26;13.70;;;10.30;;
78891;SDS011;68368;51.728;5.248;2023-06-22T01:51:30;14.80;;;10.70;;
78891;SDS011;68368;51.728;5.248;2023-06-22T01:53:33;15.10;;;10.90;;
78891;SDS011;68368;51.728;5.248;2023-06-22T01:55:37;13.10;;;9.80;;
78891;SDS011;68368;51.728;5.248;2023-06-22T01:57:40;13.60;;;9.90;;
78891;SDS011;68368;51.728;5.248;2023-06-22T01:59:46;14.70;;;10.50;;
78891;SDS011;68368;51.728;5.248;2023-06-22T02:01:56;15.50;;;10.90;;
78891;SDS011;68368;51.728;5.248;2023-06-22T02:04:05;16.20;;;12.50;;
78891;SDS011;68368;51.728;5.248;2023-06-22T02:06:14;14.90;;;10.00;;
78891;SDS011;68368;51.728;5.248;2023-06-22T02:08:23;14.60;;;10.70;;
78891;SDS011;68368;51.728;5.248;2023-06-22T02:10:32;14.20;;;10.20;;
78891;SDS011;68368;51.728;5.248;2023-06-22T02:12:36;13.40;;;10.10;;
78891;SDS011;68368;51.728;5.248;2023-06-22T02:14:40;12.80;;;10.90;;
78891;SDS011;68368;51.728;5.248;2023-06-22T02:16:44;15.40;;;10.60;;
78891;SDS011;68368;51.728;5.248;2023-06-22T02:18:48;14.80;;;10.90;;
78891;SDS011;68368;51.728;5.248;2023-06-22T02:20:52;13.50;;;10.20;;
78891;SDS011;68368;51.728;5.248;2023-06-22T02:22:55;12.70;;;9.90;;
78891;SDS011;68368;51.728;5.248;2023-06-22T02:24:58;15.30;;;11.00;;
78891;SDS011;68368;51.728;5.248;2023-06-22T02:27:02;14.50;;;10.40;;
78891;SDS011;68368;51.728;5.248;2023-06-22T02:29:06;14.10;;;11.50;;
78891;SDS011;68368;51.728;5.248;2023-06-22T02:31:09;13.60;;;10.10;;
78891;SDS011;68368;51.728;5.248;2023-06-22T02:33:13;13.50;;;9.90;;
78891;SDS011;68368;51.728;5.248;2023-06-22T02:35:16;16.10;;;10.40;;
78891;SDS011;68368;51.728;5.248;2023-06-22T02:37:19;12.50;;;9.40;;
78891;SDS011;68368;51.728;5.248;2023-06-22T02:39:23;13.30;;;9.80;;
78891;SDS011;68368;51.728;5.248;2023-06-22T02:41:27;14.00;;;10.10;;
78891;SDS011;68368;51.728;5.248;2023-06-22T02:43:30;14.40;;;10.00;;
78891;SDS011;68368;51.728;5.248;2023-06-22T02:45:33;13.40;;;10.00;;
78891;SDS011;68368;51.728;5.248;2023-06-22T02:47:36;13.00;;;9.20;;
78891;SDS011;68368;51.728;5.248;2023-06-22T02:49:40;13.00;;;9.30;;
78891;SDS011;68368;51.728;5.248;2023-06-22T02:51:44;12.30;;;8.60;;
78891;SDS011;68368;51.728;5.248;2023-06-22T02:53:49;12.60;;;9.80;;
78891;SDS011;68368;51.728;5.248;2023-06-22T02:55:52;13.70;;;9.60;;
78891;SDS011;68368;51.728;5.248;2023-06-22T02:57:55;15.00;;;10.90;;
78891;SDS011;68368;51.728;5.248;2023-06-22T02:59:58;14.70;;;9.70;;
78891;SDS011;68368;51.728;5.248;2023-06-22T03:02:03;12.40;;;9.30;;
78891;SDS011;68368;51.728;5.248;2023-06-22T03:04:07;13.50;;;8.80;;
78891;SDS011;68368;51.728;5.248;2023-06-22T03:06:11;14.40;;;8.70;;
78891;SDS011;68368;51.728;5.248;2023-06-22T03:08:14;14.80;;;9.80;;
78891;SDS011;68368;51.728;5.248;2023-06-22T03:10:17;14.10;;;10.80;;
78891;SDS011;68368;51.728;5.248;2023-06-22T03:12:20;13.80;;;10.10;;
78891;SDS011;68368;51.728;5.248;2023-06-22T03:14:24;14.60;;;9.90;;
78891;SDS011;68368;51.728;5.248;2023-06-22T03:16:27;13.90;;;10.20;;
78891;SDS011;68368;51.728;5.248;2023-06-22T03:18:30;12.90;;;9.20;;
78891;SDS011;68368;51.728;5.248;2023-06-22T03:20:33;12.50;;;9.10;;
78891;SDS011;68368;51.728;5.248;2023-06-22T03:22:37;13.30;;;9.00;;
78891;SDS011;68368;51.728;5.248;2023-06-22T03:24:41;13.50;;;9.50;;
78891;SDS011;68368;51.728;5.248;2023-06-22T03:26:45;13.90;;;10.30;;
78891;SDS011;68368;51.728;5.248;2023-06-22T03:28:48;15.30;;;10.40;;
78891;SDS011;68368;51.728;5.248;2023-06-22T03:30:51;12.00;;;10.20;;
78891;SDS011;68368;51.728;5.248;2023-06-22T03:32:55;13.80;;;9.60;;
78891;SDS011;68368;51.728;5.248;2023-06-22T03:34:58;14.20;;;8.80;;
78891;SDS011;68368;51.728;5.248;2023-06-22T03:37:01;13.10;;;9.70;;
78891;SDS011;68368;51.728;5.248;2023-06-22T03:39:05;13.20;;;10.00;;
78891;SDS011;68368;51.728;5.248;2023-06-22T03:41:08;14.60;;;10.20;;
78891;SDS011;68368;51.728;5.248;2023-06-22T03:43:11;15.60;;;10.20;;
78891;SDS011;68368;51.728;5.248;2023-06-22T03:45:15;14.70;;;9.50;;
78891;SDS011;68368;51.728;5.248;2023-06-22T03:47:18;13.10;;;9.00;;
78891;SDS011;68368;51.728;5.248;2023-06-22T03:49:21;13.50;;;10.10;;
78891;SDS011;68368;51.728;5.248;2023-06-22T03:51:25;12.60;;;10.00;;
78891;SDS011;68368;51.728;5.248;2023-06-22T03:53:28;16.50;;;10.80;;
78891;SDS011;68368;51.728;5.248;2023-06-22T03:55:31;13.60;;;9.70;;
78891;SDS011;68368;51.728;5.248;2023-06-22T03:57:35;12.30;;;9.50;;
78891;SDS011;68368;51.728;5.248;2023-06-22T03:59:38;13.40;;;9.60;;
78891;SDS011;68368;51.728;5.248;2023-06-22T04:01:42;12.90;;;9.40;;
78891;SDS011;68368;51.728;5.248;2023-06-22T04:03:45;12.60;;;9.60;;
78891;SDS011;68368;51.728;5.248;2023-06-22T04:05:48;16.00;;;9.60;;
78891;SDS011;68368;51.728;5.248;2023-06-22T04:07:51;11.80;;;8.50;;
78891;SDS011;68368;51.728;5.248;2023-06-22T04:09:57;11.20;;;9.00;;
78891;SDS011;68368;51.728;5.248;2023-06-22T04:12:00;12.10;;;8.40;;
78891;SDS011;68368;51.728;5.248;2023-06-22T04:14:04;11.70;;;8.30;;
78891;SDS011;68368;51.728;5.248;2023-06-22T04:16:07;11.80;;;8.60;;
78891;SDS011;68368;51.728;5.248;2023-06-22T04:18:11;12.20;;;9.00;;
78891;SDS011;68368;51.728;5.248;2023-06-22T04:20:14;11.70;;;8.80;;
78891;SDS011;68368;51.728;5.248;2023-06-22T04:22:23;10.40;;;8.00;;
78891;SDS011;68368;51.728;5.248;2023-06-22T04:24:27;15.50;;;9.00;;
78891;SDS011;68368;51.728;5.248;2023-06-22T04:26:30;10.00;;;7.80;;
78891;SDS011;68368;51.728;5.248;2023-06-22T04:28:33;9.90;;;7.00;;
78891;SDS011;68368;51.728;5.248;2023-06-22T04:30:37;11.20;;;8.10;;
78891;SDS011;68368;51.728;5.248;2023-06-22T04:32:40;9.40;;;7.30;;
78891;SDS011;68368;51.728;5.248;2023-06-22T04:34:43;10.90;;;8.00;;
78891;SDS011;68368;51.728;5.248;2023-06-22T04:36:47;10.50;;;8.00;;
78891;SDS011;68368;51.728;5.248;2023-06-22T04:38:50;10.80;;;8.30;;
78891;SDS011;68368;51.728;5.248;2023-06-22T04:40:53;11.60;;;8.10;;
78891;SDS011;68368;51.728;5.248;2023-06-22T04:42:57;10.40;;;7.70;;
78891;SDS011;68368;51.728;5.248;2023-06-22T04:45:03;9.40;;;7.30;;
78891;SDS011;68368;51.728;5.248;2023-06-22T04:47:07;9.40;;;7.60;;
78891;SDS011;68368;51.728;5.248;2023-06-22T04:49:10;11.80;;;7.40;;
78891;SDS011;68368;51.728;5.248;2023-06-22T04:51:14;8.50;;;6.50;;
78891;SDS011;68368;51.728;5.248;2023-06-22T04:53:17;8.70;;;6.90;;
78891;SDS011;68368;51.728;5.248;2023-06-22T04:55:20;9.10;;;6.90;;
78891;SDS011;68368;51.728;5.248;2023-06-22T04:57:25;9.50;;;7.40;;
78891;SDS011;68368;51.728;5.248;2023-06-22T04:59:29;8.30;;;6.40;;
78891;SDS011;68368;51.728;5.248;2023-06-22T05:01:33;9.00;;;6.40;;
78891;SDS011;68368;51.728;5.248;2023-06-22T05:03:37;8.50;;;6.60;;
78891;SDS011;68368;51.728;5.248;2023-06-22T05:05:40;9.70;;;7.30;;
78891;SDS011;68368;51.728;5.248;2023-06-22T05:07:44;10.50;;;7.70;;
78891;SDS011;68368;51.728;5.248;2023-06-22T05:09:48;8.80;;;7.00;;
78891;SDS011;68368;51.728;5.248;2023-06-22T05:11:52;8.30;;;7.30;;
78891;SDS011;68368;51.728;5.248;2023-06-22T05:13:56;9.30;;;7.20;;
78891;SDS011;68368;51.728;5.248;2023-06-22T05:15:59;9.80;;;7.20;;
78891;SDS011;68368;51.728;5.248;2023-06-22T05:18:02;9.60;;;7.50;;
78891;SDS011;68368;51.728;5.248;2023-06-22T05:20:07;9.10;;;7.10;;
78891;SDS011;68368;51.728;5.248;2023-06-22T05:22:11;10.00;;;7.20;;
78891;SDS011;68368;51.728;5.248;2023-06-22T05:24:15;7.20;;;6.40;;
78891;SDS011;68368;51.728;5.248;2023-06-22T05:26:19;9.20;;;7.40;;
78891;SDS011;68368;51.728;5.248;2023-06-22T05:28:22;9.90;;;6.70;;
78891;SDS011;68368;51.728;5.248;2023-06-22T05:30:25;8.90;;;6.90;;
78891;SDS011;68368;51.728;5.248;2023-06-22T05:32:29;7.90;;;6.40;;
78891;SDS011;68368;51.728;5.248;2023-06-22T05:34:33;8.30;;;6.50;;
78891;SDS011;68368;51.728;5.248;2023-06-22T05:36:36;8.90;;;7.00;;
78891;SDS011;68368;51.728;5.248;2023-06-22T05:38:39;8.20;;;6.30;;
78891;SDS011;68368;51.728;5.248;2023-06-22T05:40:43;7.90;;;6.60;;
78891;SDS011;68368;51.728;5.248;2023-06-22T05:42:47;9.70;;;7.50;;
78891;SDS011;68368;51.728;5.248;2023-06-22T05:44:50;8.40;;;6.80;;
78891;SDS011;68368;51.728;5.248;2023-06-22T05:46:53;7.70;;;6.80;;
78891;SDS011;68368;51.728;5.248;2023-06-22T05:48:56;8.30;;;7.40;;
78891;SDS011;68368;51.728;5.248;2023-06-22T05:51:00;11.30;;;7.60;;
78891;SDS011;68368;51.728;5.248;2023-06-22T05:53:03;9.10;;;7.50;;
78891;SDS011;68368;51.728;5.248;2023-06-22T05:55:10;9.70;;;7.60;;
78891;SDS011;68368;51.728;5.248;2023-06-22T05:57:13;9.10;;;7.60;;
78891;SDS011;68368;51.728;5.248;2023-06-22T05:59:17;9.00;;;7.90;;
78891;SDS011;68368;51.728;5.248;2023-06-22T06:01:20;12.60;;;8.20;;
78891;SDS011;68368;51.728;5.248;2023-06-22T06:03:24;9.80;;;8.40;;
78891;SDS011;68368;51.728;5.248;2023-06-22T06:05:27;10.20;;;8.70;;
78891;SDS011;68368;51.728;5.248;2023-06-22T06:07:30;10.10;;;9.00;;
78891;SDS011;68368;51.728;5.248;2023-06-22T06:09:34;11.20;;;8.90;;
78891;SDS011;68368;51.728;5.248;2023-06-22T06:11:37;10.80;;;8.20;;
78891;SDS011;68368;51.728;5.248;2023-06-22T06:13:40;10.40;;;8.80;;
78891;SDS011;68368;51.728;5.248;2023-06-22T06:15:44;11.70;;;8.70;;
78891;SDS011;68368;51.728;5.248;2023-06-22T06:17:47;10.60;;;8.90;;
78891;SDS011;68368;51.728;5.248;2023-06-22T06:19:51;10.00;;;8.90;;
78891;SDS011;68368;51.728;5.248;2023-06-22T06:21:55;10.00;;;9.00;;
78891;SDS011;68368;51.728;5.248;2023-06-22T06:23:58;14.40;;;9.20;;
78891;SDS011;68368;51.728;5.248;2023-06-22T06:26:01;12.10;;;9.40;;
78891;SDS011;68368;51.728;5.248;2023-06-22T06:28:05;11.60;;;10.10;;
78891;SDS011;68368;51.728;5.248;2023-06-22T06:30:09;11.30;;;10.10;;
78891;SDS011;68368;51.728;5.248;2023-06-22T06:32:14;11.00;;;9.80;;
78891;SDS011;68368;51.728;5.248;2023-06-22T06:34:17;12.90;;;10.20;;
78891;SDS011;68368;51.728;5.248;2023-06-22T06:36:20;11.60;;;9.70;;
78891;SDS011;68368;51.728;5.248;2023-06-22T06:38:23;12.30;;;11.00;;
78891;SDS011;68368;51.728;5.248;2023-06-22T06:40:27;12.80;;;9.60;;
78891;SDS011;68368;51.728;5.248;2023-06-22T06:42:30;15.30;;;10.60;;
78891;SDS011;68368;51.728;5.248;2023-06-22T06:44:33;11.70;;;10.30;;
78891;SDS011;68368;51.728;5.248;2023-06-22T06:46:36;13.00;;;10.30;;
78891;SDS011;68368;51.728;5.248;2023-06-22T06:48:39;13.40;;;11.00;;
78891;SDS011;68368;51.728;5.248;2023-06-22T06:50:45;12.20;;;10.80;;
78891;SDS011;68368;51.728;5.248;2023-06-22T06:52:51;13.10;;;11.50;;
78891;SDS011;68368;51.728;5.248;2023-06-22T06:54:54;12.10;;;10.90;;
78891;SDS011;68368;51.728;5.248;2023-06-22T06:56:57;11.60;;;10.30;;
78891;SDS011;68368;51.728;5.248;2023-06-22T06:59:03;14.00;;;11.90;;
78891;SDS011;68368;51.728;5.248;2023-06-22T07:01:06;12.10;;;10.70;;
78891;SDS011;68368;51.728;5.248;2023-06-22T07:03:09;13.30;;;11.90;;
78891;SDS011;68368;51.728;5.248;2023-06-22T07:05:13;13.80;;;12.30;;
78891;SDS011;68368;51.728;5.248;2023-06-22T07:07:16;11.30;;;10.10;;
78891;SDS011;68368;51.728;5.248;2023-06-22T07:09:19;12.30;;;10.80;;
78891;SDS011;68368;51.728;5.248;2023-06-22T07:11:22;14.10;;;12.10;;
78891;SDS011;68368;51.728;5.248;2023-06-22T07:13:26;12.70;;;11.40;;
78891;SDS011;68368;51.728;5.248;2023-06-22T07:15:30;13.00;;;11.70;;
78891;SDS011;68368;51.728;5.248;2023-06-22T07:17:34;14.20;;;12.70;;
78891;SDS011;68368;51.728;5.248;2023-06-22T07:19:37;14.10;;;11.70;;
78891;SDS011;68368;51.728;5.248;2023-06-22T07:21:42;14.80;;;11.70;;
78891;SDS011;68368;51.728;5.248;2023-06-22T07:23:45;14.20;;;10.60;;
78891;SDS011;68368;51.728;5.248;2023-06-22T07:25:50;12.70;;;11.30;;
78891;SDS011;68368;51.728;5.248;2023-06-22T07:27:59;13.10;;;11.10;;
78891;SDS011;68368;51.728;5.248;2023-06-22T07:30:05;12.90;;;10.80;;
78891;SDS011;68368;51.728;5.248;2023-06-22T07:32:11;12.80;;;11.50;;
78891;SDS011;68368;51.728;5.248;2023-06-22T07:34:15;14.80;;;13.10;;
78891;SDS011;68368;51.728;5.248;2023-06-22T07:36:18;13.80;;;12.30;;
78891;SDS011;68368;51.728;5.248;2023-06-22T07:38:21;16.90;;;12.50;;
78891;SDS011;68368;51.728;5.248;2023-06-22T07:40:25;14.40;;;12.20;;
78891;SDS011;68368;51.728;5.248;2023-06-22T07:42:28;14.50;;;12.80;;
78891;SDS011;68368;51.728;5.248;2023-06-22T07:44:31;16.70;;;13.60;;
78891;SDS011;68368;51.728;5.248;2023-06-22T07:46:35;13.70;;;12.00;;
78891;SDS011;68368;51.728;5.248;2023-06-22T07:48:38;16.10;;;13.70;;
78891;SDS011;68368;51.728;5.248;2023-06-22T07:50:41;17.80;;;14.70;;
78891;SDS011;68368;51.728;5.248;2023-06-22T07:52:44;13.90;;;12.30;;
78891;SDS011;68368;51.728;5.248;2023-06-22T07:54:48;16.70;;;13.00;;
78891;SDS011;68368;51.728;5.248;2023-06-22T07:56:51;15.30;;;12.50;;
78891;SDS011;68368;51.728;5.248;2023-06-22T07:58:54;18.90;;;13.60;;
78891;SDS011;68368;51.728;5.248;2023-06-22T08:00:58;15.70;;;13.90;;
78891;SDS011;68368;51.728;5.248;2023-06-22T08:03:01;14.50;;;13.00;;
78891;SDS011;68368;51.728;5.248;2023-06-22T08:05:04;15.30;;;13.40;;
78891;SDS011;68368;51.728;5.248;2023-06-22T08:07:11;15.50;;;13.90;;
78891;SDS011;68368;51.728;5.248;2023-06-22T08:09:14;15.50;;;13.90;;
78891;SDS011;68368;51.728;5.248;2023-06-22T08:11:17;16.40;;;13.90;;
78891;SDS011;68368;51.728;5.248;2023-06-22T08:13:21;17.10;;;14.10;;
78891;SDS011;68368;51.728;5.248;2023-06-22T08:15:27;17.40;;;15.60;;
78891;SDS011;68368;51.728;5.248;2023-06-22T08:17:34;16.30;;;12.90;;
78891;SDS011;68368;51.728;5.248;2023-06-22T08:19:38;17.10;;;13.60;;
78891;SDS011;68368;51.728;5.248;2023-06-22T08:21:41;17.30;;;13.80;;
78891;SDS011;68368;51.728;5.248;2023-06-22T08:23:45;13.70;;;12.30;;
78891;SDS011;68368;51.728;5.248;2023-06-22T08:25:49;15.70;;;13.00;;
78891;SDS011;68368;51.728;5.248;2023-06-22T08:27:52;16.40;;;13.40;;
78891;SDS011;68368;51.728;5.248;2023-06-22T08:29:55;12.70;;;11.30;;
78891;SDS011;68368;51.728;5.248;2023-06-22T08:31:59;16.70;;;13.60;;
78891;SDS011;68368;51.728;5.248;2023-06-22T08:34:02;15.20;;;13.10;;
78891;SDS011;68368;51.728;5.248;2023-06-22T08:36:06;17.80;;;13.50;;
78891;SDS011;68368;51.728;5.248;2023-06-22T08:38:09;16.60;;;13.60;;
78891;SDS011;68368;51.728;5.248;2023-06-22T08:40:12;15.60;;;13.20;;
78891;SDS011;68368;51.728;5.248;2023-06-22T08:42:16;17.30;;;13.80;;
78891;SDS011;68368;51.728;5.248;2023-06-22T08:44:19;16.00;;;13.20;;
78891;SDS011;68368;51.728;5.248;2023-06-22T08:46:22;17.00;;;14.00;;
78891;SDS011;68368;51.728;5.248;2023-06-22T08:48:26;16.90;;;14.30;;
78891;SDS011;68368;51.728;5.248;2023-06-22T08:50:29;15.00;;;13.20;;
78891;SDS011;68368;51.728;5.248;2023-06-22T08:52:32;19.10;;;14.80;;
78891;SDS011;68368;51.728;5.248;2023-06-22T08:54:36;17.40;;;13.20;;
78891;SDS011;68368;51.728;5.248;2023-06-22T08:56:39;16.20;;;13.60;;
78891;SDS011;68368;51.728;5.248;2023-06-22T08:58:45;16.40;;;13.20;;
78891;SDS011;68368;51.728;5.248;2023-06-22T09:00:49;16.60;;;13.10;;
78891;SDS011;68368;51.728;5.248;2023-06-22T09:02:52;13.10;;;11.60;;
78891;SDS011;68368;51.728;5.248;2023-06-22T09:04:56;14.10;;;11.10;;
78891;SDS011;68368;51.728;5.248;2023-06-22T09:07:00;13.80;;;11.90;;
78891;SDS011;68368;51.728;5.248;2023-06-22T09:09:06;12.30;;;11.00;;
78891;SDS011;68368;51.728;5.248;2023-06-22T09:11:09;14.30;;;11.90;;
78891;SDS011;68368;51.728;5.248;2023-06-22T09:13:12;14.20;;;10.60;;
78891;SDS011;68368;51.728;5.248;2023-06-22T09:15:16;13.70;;;12.00;;
78891;SDS011;68368;51.728;5.248;2023-06-22T09:17:19;13.80;;;10.30;;
78891;SDS011;68368;51.728;5.248;2023-06-22T09:19:23;11.80;;;9.60;;
78891;SDS011;68368;51.728;5.248;2023-06-22T09:21:27;12.40;;;9.80;;
78891;SDS011;68368;51.728;5.248;2023-06-22T09:23:32;12.50;;;10.90;;
78891;SDS011;68368;51.728;5.248;2023-06-22T09:25:35;13.50;;;11.10;;
78891;SDS011;68368;51.728;5.248;2023-06-22T09:27:39;11.50;;;9.80;;
78891;SDS011;68368;51.728;5.248;2023-06-22T09:29:42;13.00;;;9.60;;
78891;SDS011;68368;51.728;5.248;2023-06-22T09:31:45;11.10;;;9.30;;
78891;SDS011;68368;51.728;5.248;2023-06-22T09:33:49;11.50;;;9.00;;
78891;SDS011;68368;51.728;5.248;2023-06-22T09:35:52;11.40;;;8.90;;
78891;SDS011;68368;51.728;5.248;2023-06-22T09:37:55;10.50;;;8.80;;
78891;SDS011;68368;51.728;5.248;2023-06-22T09:39:59;11.90;;;9.60;;
78891;SDS011;68368;51.728;5.248;2023-06-22T09:42:02;11.40;;;9.10;;
78891;SDS011;68368;51.728;5.248;2023-06-22T09:44:06;11.30;;;9.20;;
78891;SDS011;68368;51.728;5.248;2023-06-22T09:46:12;11.90;;;9.40;;
78891;SDS011;68368;51.728;5.248;2023-06-22T09:48:16;14.80;;;10.50;;
78891;SDS011;68368;51.728;5.248;2023-06-22T09:50:19;12.50;;;10.70;;
78891;SDS011;68368;51.728;5.248;2023-06-22T09:52:23;12.60;;;10.10;;
78891;SDS011;68368;51.728;5.248;2023-06-22T09:54:26;11.90;;;9.00;;
78891;SDS011;68368;51.728;5.248;2023-06-22T09:56:29;12.20;;;9.70;;
78891;SDS011;68368;51.728;5.248;2023-06-22T09:58:33;11.50;;;9.20;;
78891;SDS011;68368;51.728;5.248;2023-06-22T10:00:37;10.70;;;8.70;;
78891;SDS011;68368;51.728;5.248;2023-06-22T10:02:41;10.10;;;8.10;;
78891;SDS011;68368;51.728;5.248;2023-06-22T10:04:44;11.20;;;9.00;;
78891;SDS011;68368;51.728;5.248;2023-06-22T10:06:48;12.30;;;10.40;;
78891;SDS011;68368;51.728;5.248;2023-06-22T10:08:51;11.10;;;9.70;;
78891;SDS011;68368;51.728;5.248;2023-06-22T10:10:54;11.30;;;9.00;;
78891;SDS011;68368;51.728;5.248;2023-06-22T10:12:57;8.90;;;7.20;;
78891;SDS011;68368;51.728;5.248;2023-06-22T10:15:09;10.60;;;8.10;;
78891;SDS011;68368;51.728;5.248;2023-06-22T10:17:13;11.00;;;9.00;;
78891;SDS011;68368;51.728;5.248;2023-06-22T10:19:16;10.70;;;7.90;;
78891;SDS011;68368;51.728;5.248;2023-06-22T10:21:19;8.90;;;7.40;;
78891;SDS011;68368;51.728;5.248;2023-06-22T10:23:23;8.40;;;7.00;;
78891;SDS011;68368;51.728;5.248;2023-06-22T10:25:26;9.40;;;7.40;;
78891;SDS011;68368;51.728;5.248;2023-06-22T10:27:29;10.90;;;8.30;;
78891;SDS011;68368;51.728;5.248;2023-06-22T10:29:33;9.00;;;7.60;;
78891;SDS011;68368;51.728;5.248;2023-06-22T10:31:36;11.10;;;9.40;;
78891;SDS011;68368;51.728;5.248;2023-06-22T10:33:39;9.60;;;8.40;;
78891;SDS011;68368;51.728;5.248;2023-06-22T10:35:42;9.70;;;8.00;;
78891;SDS011;68368;51.728;5.248;2023-06-22T10:37:46;8.70;;;7.20;;
78891;SDS011;68368;51.728;5.248;2023-06-22T10:39:50;8.40;;;6.90;;
78891;SDS011;68368;51.728;5.248;2023-06-22T10:41:53;9.80;;;6.90;;
78891;SDS011;68368;51.728;5.248;2023-06-22T10:43:57;9.80;;;6.90;;
78891;SDS011;68368;51.728;5.248;2023-06-22T10:46:00;10.80;;;6.80;;
78891;SDS011;68368;51.728;5.248;2023-06-22T10:48:04;9.50;;;7.30;;
78891;SDS011;68368;51.728;5.248;2023-06-22T10:50:10;8.10;;;6.50;;
78891;SDS011;68368;51.728;5.248;2023-06-22T10:52:13;9.80;;;7.40;;
78891;SDS011;68368;51.728;5.248;2023-06-22T10:54:17;9.90;;;6.80;;
78891;SDS011;68368;51.728;5.248;2023-06-22T10:56:24;9.10;;;6.80;;
78891;SDS011;68368;51.728;5.248;2023-06-22T10:58:28;9.70;;;7.20;;
78891;SDS011;68368;51.728;5.248;2023-06-22T11:00:31;10.30;;;7.70;;
78891;SDS011;68368;51.728;5.248;2023-06-22T11:02:34;8.40;;;7.50;;
78891;SDS011;68368;51.728;5.248;2023-06-22T11:04:37;9.90;;;8.50;;
78891;SDS011;68368;51.728;5.248;2023-06-22T11:06:41;11.50;;;7.70;;
78891;SDS011;68368;51.728;5.248;2023-06-22T11:08:45;9.30;;;7.60;;
78891;SDS011;68368;51.728;5.248;2023-06-22T11:10:48;9.80;;;7.90;;
78891;SDS011;68368;51.728;5.248;2023-06-22T11:12:53;10.60;;;7.70;;
78891;SDS011;68368;51.728;5.248;2023-06-22T11:14:57;9.90;;;7.40;;
78891;SDS011;68368;51.728;5.248;2023-06-22T11:17:00;9.40;;;7.40;;
78891;SDS011;68368;51.728;5.248;2023-06-22T11:19:04;9.30;;;7.30;;
78891;SDS011;68368;51.728;5.248;2023-06-22T11:21:07;10.70;;;8.00;;
78891;SDS011;68368;51.728;5.248;2023-06-22T11:23:11;9.50;;;8.30;;
78891;SDS011;68368;51.728;5.248;2023-06-22T11:25:14;8.10;;;7.30;;
78891;SDS011;68368;51.728;5.248;2023-06-22T11:27:17;8.50;;;6.80;;
78891;SDS011;68368;51.728;5.248;2023-06-22T11:29:21;8.60;;;7.00;;
78891;SDS011;68368;51.728;5.248;2023-06-22T11:31:24;10.20;;;7.80;;
78891;SDS011;68368;51.728;5.248;2023-06-22T11:33:27;10.00;;;7.50;;
78891;SDS011;68368;51.728;5.248;2023-06-22T11:35:31;10.40;;;7.40;;
78891;SDS011;68368;51.728;5.248;2023-06-22T11:37:34;8.80;;;6.70;;
78891;SDS011;68368;51.728;5.248;2023-06-22T11:39:37;9.10;;;7.50;;
78891;SDS011;68368;51.728;5.248;2023-06-22T11:41:40;9.30;;;7.80;;
78891;SDS011;68368;51.728;5.248;2023-06-22T11:43:44;9.30;;;7.60;;
78891;SDS011;68368;51.728;5.248;2023-06-22T11:45:48;11.40;;;6.90;;
78891;SDS011;68368;51.728;5.248;2023-06-22T11:47:51;9.60;;;8.20;;
78891;SDS011;68368;51.728;5.248;2023-06-22T11:49:55;9.40;;;7.20;;
78891;SDS011;68368;51.728;5.248;2023-06-22T11:51:58;9.20;;;7.90;;
78891;SDS011;68368;51.728;5.248;2023-06-22T11:54:02;9.20;;;8.20;;
78891;SDS011;68368;51.728;5.248;2023-06-22T11:56:05;9.40;;;8.50;;
78891;SDS011;68368;51.728;5.248;2023-06-22T11:58:08;11.70;;;8.10;;
78891;SDS011;68368;51.728;5.248;2023-06-22T12:00:13;9.60;;;8.50;;
78891;SDS011;68368;51.728;5.248;2023-06-22T12:02:17;10.30;;;8.70;;
78891;SDS011;68368;51.728;5.248;2023-06-22T12:04:20;9.80;;;7.40;;
78891;SDS011;68368;51.728;5.248;2023-06-22T12:06:23;9.60;;;6.80;;
78891;SDS011;68368;51.728;5.248;2023-06-22T12:08:30;11.80;;;7.90;;
78891;SDS011;68368;51.728;5.248;2023-06-22T12:10:33;11.40;;;8.50;;
78891;SDS011;68368;51.728;5.248;2023-06-22T12:12:37;10.40;;;9.10;;
78891;SDS011;68368;51.728;5.248;2023-06-22T12:14:41;10.10;;;9.00;;